createdAt,value
2022-08-25T00:00:52.695Z,12.81
2022-08-25T00:02:55.806Z,12.84
2022-08-25T00:04:53.748Z,12.85
2022-08-25T00:06:52.692Z,13.02
2022-08-25T00:08:52.694Z,12.96
2022-08-25T00:10:59.899Z,12.97
2022-08-25T00:12:52.705Z,13.02
2022-08-25T00:14:52.701Z,12.97
2022-08-25T00:16:52.710Z,12.99
2022-08-25T00:18:52.698Z,12.99
2022-08-25T00:20:52.711Z,13.05
2022-08-25T00:22:52.714Z,12.96
2022-08-25T00:24:52.716Z,12.97
2022-08-25T00:26:52.711Z,13.02
2022-08-25T00:28:52.728Z,13
2022-08-25T00:30:52.782Z,12.95
2022-08-25T00:32:55.449Z,12.98
2022-08-25T00:34:52.732Z,12.94
2022-08-25T00:36:52.737Z,12.95
2022-08-25T00:38:52.770Z,12.98
2022-08-25T00:40:52.751Z,12.92
2022-08-25T00:42:52.740Z,12.95
2022-08-25T00:44:53.007Z,12.89
2022-08-25T00:46:52.771Z,12.85
2022-08-25T00:48:52.758Z,12.88
2022-08-25T00:50:52.771Z,12.82
2022-08-25T00:52:52.751Z,12.83
2022-08-25T00:54:52.761Z,12.79
2022-08-25T00:56:52.765Z,12.8
2022-08-25T00:58:52.761Z,12.75
2022-08-25T01:00:52.778Z,12.69
2022-08-25T01:02:52.812Z,12.69
2022-08-25T01:04:52.776Z,12.62
2022-08-25T01:06:52.775Z,12.6
2022-08-25T01:08:52.775Z,12.62
2022-08-25T01:10:52.789Z,12.6
2022-08-25T01:12:52.784Z,12.66
2022-08-25T01:14:52.789Z,12.72
2022-08-25T01:16:53.873Z,12.84
2022-08-25T01:18:52.796Z,12.85
2022-08-25T01:20:52.794Z,12.92
2022-08-25T01:22:55.184Z,12.93
2022-08-25T01:24:52.799Z,12.95
2022-08-25T01:26:52.787Z,13.06
2022-08-25T01:28:52.796Z,13.04
2022-08-25T01:30:52.896Z,13.06
2022-08-25T01:32:52.807Z,13.06
2022-08-25T01:34:52.808Z,13.08
2022-08-25T01:36:52.808Z,13.08
2022-08-25T01:38:52.803Z,13.01
2022-08-25T01:40:52.820Z,13.01
2022-08-25T01:42:52.806Z,13.02
2022-08-25T01:44:52.821Z,13.02
2022-08-25T01:46:52.834Z,12.93
2022-08-25T01:48:52.825Z,12.94
2022-08-25T01:50:52.844Z,12.89
2022-08-25T01:52:52.832Z,12.92
2022-08-25T01:54:52.833Z,12.92
2022-08-25T01:56:52.847Z,12.83
2022-08-25T01:58:52.838Z,12.84
2022-08-25T02:00:52.848Z,12.87
2022-08-25T02:02:53.865Z,12.83
2022-08-25T02:04:52.855Z,12.85
2022-08-25T02:06:52.859Z,12.85
2022-08-25T02:08:52.866Z,12.77
2022-08-25T02:10:52.877Z,12.78
2022-08-25T02:12:53.098Z,12.84
2022-08-25T02:14:52.871Z,12.85
2022-08-25T02:16:52.977Z,12.88
2022-08-25T02:18:52.887Z,12.99
2022-08-25T02:20:52.892Z,12.99
2022-08-25T02:22:53.177Z,12.92
2022-08-25T02:24:52.881Z,12.93
2022-08-25T02:26:52.890Z,12.95
2022-08-25T02:28:52.891Z,12.96
2022-08-25T02:30:52.998Z,13.05
2022-08-25T02:32:52.901Z,13.1
2022-08-25T02:34:52.902Z,13.1
2022-08-25T02:36:52.918Z,13.1
2022-08-25T02:38:52.919Z,13.11
2022-08-25T02:40:52.939Z,13.1
2022-08-25T02:42:52.926Z,13.12
2022-08-25T02:44:52.928Z,13.12
2022-08-25T02:46:52.948Z,13.12
2022-08-25T02:48:52.940Z,13.14
2022-08-25T02:50:52.964Z,13.06
2022-08-25T02:52:52.951Z,13.07
2022-08-25T02:54:52.948Z,13.07
2022-08-25T02:56:52.956Z,13.06
2022-08-25T02:58:52.963Z,13.09
2022-08-25T03:00:53.040Z,13.09
2022-08-25T03:02:52.972Z,13.11
2022-08-25T03:04:53.009Z,13.11
2022-08-25T03:06:52.975Z,13.13
2022-08-25T03:08:52.975Z,13.11
2022-08-25T03:10:53.011Z,13.13
2022-08-25T03:12:52.980Z,13.11
2022-08-25T03:14:52.983Z,13.05
2022-08-25T03:16:53.023Z,13.03
2022-08-25T03:18:52.993Z,12.94
2022-08-25T03:20:53.012Z,12.94
2022-08-25T03:22:53.006Z,12.96
2022-08-25T03:24:53.003Z,12.98
2022-08-25T03:26:53.006Z,13.06
2022-08-25T03:28:53.003Z,13.06
2022-08-25T03:30:53.452Z,13.06
2022-08-25T03:32:53.014Z,13.09
2022-08-25T03:34:53.022Z,13.01
2022-08-25T03:36:53.024Z,13.02
2022-08-25T03:38:53.025Z,13.12
2022-08-25T03:40:53.043Z,13.1
2022-08-25T03:42:53.037Z,13.13
2022-08-25T03:44:53.047Z,13.06
2022-08-25T03:46:53.070Z,13.06
2022-08-25T03:48:53.053Z,12.97
2022-08-25T03:50:53.067Z,12.97
2022-08-25T03:52:53.063Z,12.94
2022-08-25T03:54:53.059Z,12.94
2022-08-25T03:56:53.063Z,12.94
2022-08-25T03:58:53.076Z,12.94
2022-08-25T04:00:53.145Z,12.96
2022-08-25T04:02:53.083Z,12.89
2022-08-25T04:04:53.095Z,12.91
2022-08-25T04:06:53.115Z,13
2022-08-25T04:08:53.097Z,12.92
2022-08-25T04:10:53.101Z,12.93
2022-08-25T04:12:53.127Z,13.01
2022-08-25T04:14:53.118Z,13.01
2022-08-25T04:16:53.332Z,13.04
2022-08-25T04:18:53.139Z,13.04
2022-08-25T04:20:53.138Z,13.13
2022-08-25T04:22:53.145Z,13.14
2022-08-25T04:24:53.152Z,13.14
2022-08-25T04:26:53.153Z,13.24
2022-08-25T04:28:53.166Z,13.24
2022-08-25T04:30:53.210Z,13.33
2022-08-25T04:32:53.175Z,13.33
2022-08-25T04:34:53.178Z,13.43
2022-08-25T04:36:53.192Z,13.43
2022-08-25T04:38:53.186Z,13.43
2022-08-25T04:40:53.207Z,13.44
2022-08-25T04:42:53.204Z,13.44
2022-08-25T04:44:53.206Z,13.52
2022-08-25T04:46:53.215Z,13.52
2022-08-25T04:48:53.224Z,13.43
2022-08-25T04:50:53.229Z,13.52
2022-08-25T04:52:53.229Z,13.52
2022-08-25T04:54:53.231Z,13.54
2022-08-25T04:56:54.378Z,13.52
2022-08-25T04:58:53.241Z,13.62
2022-08-25T05:00:53.339Z,13.6
2022-08-25T05:02:53.254Z,13.62
2022-08-25T05:04:53.286Z,13.62
2022-08-25T05:06:53.264Z,13.7
2022-08-25T05:08:53.275Z,13.7
2022-08-25T05:10:53.286Z,13.78
2022-08-25T05:12:53.284Z,13.78
2022-08-25T05:14:53.291Z,13.88
2022-08-25T05:16:53.432Z,13.96
2022-08-25T05:18:53.304Z,13.96
2022-08-25T05:20:53.327Z,14.05
2022-08-25T05:22:53.317Z,14.12
2022-08-25T05:24:53.319Z,14.1
2022-08-25T05:26:53.328Z,14.27
2022-08-25T05:28:53.342Z,14.26
2022-08-25T05:30:53.356Z,14.4
2022-08-25T05:32:53.353Z,14.4
2022-08-25T05:34:53.354Z,14.44
2022-08-25T05:36:53.369Z,14.53
2022-08-25T05:38:53.380Z,14.55
2022-08-25T05:40:53.386Z,14.58
2022-08-25T05:42:53.384Z,14.69
2022-08-25T05:44:53.399Z,14.79
2022-08-25T05:46:53.406Z,14.79
2022-08-25T05:48:53.403Z,14.87
2022-08-25T05:50:53.425Z,14.86
2022-08-25T05:52:53.418Z,14.89
2022-08-25T05:54:53.419Z,14.91
2022-08-25T05:56:53.421Z,14.92
2022-08-25T05:58:53.441Z,14.91
2022-08-25T06:00:53.470Z,15.05
2022-08-25T06:02:53.444Z,15.04
2022-08-25T06:04:53.449Z,15.08
2022-08-25T06:06:53.472Z,15.07
2022-08-25T06:08:53.462Z,15.2
2022-08-25T06:10:53.474Z,15.26
2022-08-25T06:12:53.465Z,15.22
2022-08-25T06:14:53.475Z,15.23
2022-08-25T06:16:53.505Z,15.09
2022-08-25T06:18:53.481Z,15.12
2022-08-25T06:20:53.492Z,15.14
2022-08-25T06:22:53.493Z,15.1
2022-08-25T06:24:53.495Z,15.14
2022-08-25T06:26:53.502Z,15.17
2022-08-25T06:28:53.504Z,15.23
2022-08-25T06:30:53.517Z,15.21
2022-08-25T06:32:53.516Z,15.19
2022-08-25T06:34:53.521Z,15.17
2022-08-25T06:36:53.524Z,15.19
2022-08-25T06:38:53.524Z,15.12
2022-08-25T06:40:53.546Z,15.17
2022-08-25T06:42:53.538Z,15.17
2022-08-25T06:44:53.545Z,15.19
2022-08-25T06:46:53.588Z,15.24
2022-08-25T06:48:53.558Z,15.35
2022-08-25T06:50:53.559Z,15.33
2022-08-25T06:52:53.553Z,15.33
2022-08-25T06:54:53.566Z,15.38
2022-08-25T06:56:53.559Z,15.41
2022-08-25T06:58:53.591Z,15.45
2022-08-25T07:00:53.660Z,15.5
2022-08-25T07:02:53.567Z,15.44
2022-08-25T07:04:53.575Z,15.46
2022-08-25T07:06:53.577Z,15.46
2022-08-25T07:08:53.574Z,15.53
2022-08-25T07:10:53.591Z,15.64
2022-08-25T07:12:53.583Z,15.66
2022-08-25T07:15:04.008Z,15.73
2022-08-25T07:16:53.602Z,15.76
2022-08-25T07:18:53.586Z,15.71
2022-08-25T07:20:53.598Z,15.83
2022-08-25T07:22:53.593Z,15.98
2022-08-25T07:24:53.597Z,16.19
2022-08-25T07:26:53.607Z,16.13
2022-08-25T07:28:53.599Z,16.08
2022-08-25T07:30:53.618Z,16.06
2022-08-25T07:33:04.684Z,16.18
2022-08-25T07:34:53.612Z,16.16
2022-08-25T07:36:53.607Z,16.14
2022-08-25T07:38:53.607Z,16
2022-08-25T07:40:53.621Z,16.12
2022-08-25T07:42:53.611Z,16.04
2022-08-25T07:44:53.609Z,16.09
2022-08-25T07:46:53.762Z,16.06
2022-08-25T07:48:53.636Z,16.03
2022-08-25T07:50:53.636Z,16.17
2022-08-25T07:52:55.113Z,16.17
2022-08-25T07:54:53.625Z,16.23
2022-08-25T07:56:53.619Z,16.37
2022-08-25T07:58:53.627Z,16.2
2022-08-25T08:00:53.629Z,16.25
2022-08-25T08:02:53.673Z,16.29
2022-08-25T08:04:53.624Z,16.34
2022-08-25T08:06:53.631Z,16.31
2022-08-25T08:08:54.834Z,16.35
2022-08-25T08:11:03.478Z,16.33
2022-08-25T08:12:53.654Z,16.46
2022-08-25T08:14:53.661Z,16.39
2022-08-25T08:16:53.680Z,16.49
2022-08-25T08:18:53.667Z,16.57
2022-08-25T08:20:53.693Z,16.42
2022-08-25T08:22:53.681Z,16.32
2022-08-25T08:24:54.328Z,16.44
2022-08-25T08:26:58.886Z,16.39
2022-08-25T08:28:53.687Z,16.51
2022-08-25T08:30:54.033Z,16.45
2022-08-25T08:33:09.003Z,16.44
2022-08-25T08:34:53.690Z,16.48
2022-08-25T08:36:53.707Z,16.54
2022-08-25T08:38:53.703Z,16.51
2022-08-25T08:40:53.715Z,16.4
2022-08-25T08:42:53.714Z,16.49
2022-08-25T08:44:53.715Z,16.53
2022-08-25T08:46:53.792Z,16.59
2022-08-25T08:48:53.730Z,16.54
2022-08-25T08:50:53.758Z,16.37
2022-08-25T08:52:53.737Z,16.51
2022-08-25T08:54:53.739Z,16.54
2022-08-25T08:56:53.746Z,16.49
2022-08-25T08:58:53.758Z,16.54
2022-08-25T09:00:53.767Z,16.42
2022-08-25T09:02:53.825Z,16.45
2022-08-25T09:04:53.765Z,16.27
2022-08-25T09:06:53.774Z,16.42
2022-08-25T09:08:53.779Z,16.42
2022-08-25T09:10:54.188Z,16.56
2022-08-25T09:14:54.271Z,16.35
2022-08-25T09:16:53.819Z,16.4
2022-08-25T09:18:53.809Z,16.41
2022-08-25T09:20:53.827Z,16.3
2022-08-25T09:22:53.845Z,16.15
2022-08-25T09:24:53.832Z,16.27
2022-08-25T09:26:53.840Z,16.3
2022-08-25T09:28:53.836Z,16.29
2022-08-25T09:30:53.917Z,16.47
2022-08-25T09:32:53.857Z,16.44
2022-08-25T09:34:53.864Z,16.35
2022-08-25T09:36:53.870Z,16.35
2022-08-25T09:38:53.881Z,16.41
2022-08-25T09:40:53.918Z,16.47
2022-08-25T09:42:57.788Z,16.59
2022-08-25T09:44:53.892Z,16.46
2022-08-25T09:46:53.904Z,16.3
2022-08-25T09:48:56.210Z,16.19
2022-08-25T09:50:53.927Z,16.13
2022-08-25T09:52:53.920Z,16.16
2022-08-25T09:54:53.925Z,16.24
2022-08-25T09:56:53.934Z,16.21
2022-08-25T09:58:53.941Z,16.07
2022-08-25T10:00:53.964Z,15.96
2022-08-25T10:02:53.959Z,15.97
2022-08-25T10:04:54.011Z,15.93
2022-08-25T10:06:53.971Z,16
2022-08-25T10:08:53.983Z,16.01
2022-08-25T10:10:53.998Z,16.03
2022-08-25T10:12:53.993Z,16.1
2022-08-25T10:14:54.425Z,16.32
2022-08-25T10:16:54.020Z,16.29
2022-08-25T10:18:54.018Z,16.28
2022-08-25T10:20:54.013Z,16.41
2022-08-25T10:22:54.011Z,16.48
2022-08-25T10:24:54.020Z,16.33
2022-08-25T10:26:54.027Z,16.27
2022-08-25T10:28:54.039Z,16.25
2022-08-25T10:30:54.149Z,16.31
2022-08-25T10:32:54.044Z,16.31
2022-08-25T10:34:54.056Z,16.34
2022-08-25T10:36:54.062Z,16.34
2022-08-25T10:38:54.079Z,16.19
2022-08-25T10:40:54.082Z,16.16
2022-08-25T10:42:54.100Z,16.16
2022-08-25T10:44:54.124Z,16.21
2022-08-25T10:46:54.122Z,16.1
2022-08-25T10:48:54.131Z,16.15
2022-08-25T10:50:54.131Z,16.3
2022-08-25T10:52:54.142Z,16.3
2022-08-25T10:54:54.798Z,16.27
2022-08-25T10:56:55.782Z,16.3
2022-08-25T10:58:54.177Z,16.15
2022-08-25T11:00:54.179Z,15.98
2022-08-25T11:02:54.191Z,16
2022-08-25T11:04:54.679Z,16.02
2022-08-25T11:06:54.505Z,16.16
2022-08-25T11:08:54.213Z,16.21
2022-08-25T11:10:54.232Z,16.3
2022-08-25T11:12:54.233Z,16.3
2022-08-25T11:14:54.240Z,16.39
2022-08-25T11:16:54.311Z,16.22
2022-08-25T11:18:54.249Z,16.19
2022-08-25T11:20:54.254Z,16.22
2022-08-25T11:22:54.263Z,16.25
2022-08-25T11:24:54.273Z,16.25
2022-08-25T11:26:54.287Z,16.28
2022-08-25T11:28:54.293Z,16.34
2022-08-25T11:30:54.328Z,16.25
2022-08-25T11:32:54.313Z,16.24
2022-08-25T11:34:54.326Z,16.24
2022-08-25T11:36:54.332Z,16.33
2022-08-25T11:38:54.342Z,16.3
2022-08-25T11:40:54.350Z,16.39
2022-08-25T11:42:54.388Z,16.39
2022-08-25T11:44:54.920Z,16.42
2022-08-25T11:46:54.396Z,16.39
2022-08-25T11:48:54.390Z,16.36
2022-08-25T11:50:54.397Z,16.25
2022-08-25T11:52:54.459Z,16.31
2022-08-25T11:54:54.420Z,16.37
2022-08-25T11:56:54.434Z,16.19
2022-08-25T11:58:54.444Z,16.25
2022-08-25T12:00:54.454Z,16.1
2022-08-25T12:02:56.467Z,16.01
2022-08-25T12:04:54.543Z,16.1
2022-08-25T12:06:54.484Z,16.07
2022-08-25T12:08:54.484Z,15.98
2022-08-25T12:10:54.493Z,16.01
2022-08-25T12:12:54.501Z,16.15
2022-08-25T12:14:54.507Z,16.18
2022-08-25T12:16:54.581Z,16.1
2022-08-25T12:18:54.534Z,16.06
2022-08-25T12:20:54.549Z,16.09
2022-08-25T12:22:54.564Z,16.18
2022-08-25T12:24:54.574Z,16.26
2022-08-25T12:26:54.591Z,16.15
2022-08-25T12:28:54.601Z,16.27
2022-08-25T12:30:54.667Z,16.22
2022-08-25T12:32:54.673Z,16.22
2022-08-25T12:34:54.635Z,16.24
2022-08-25T12:36:54.655Z,16.18
2022-08-25T12:38:54.668Z,16.12
2022-08-25T12:40:54.679Z,16.27
2022-08-25T12:42:54.693Z,16.18
2022-08-25T12:44:54.703Z,16.3
2022-08-25T12:46:54.728Z,16.33
2022-08-25T12:48:54.728Z,16.27
2022-08-25T12:50:54.742Z,16.04
2022-08-25T12:52:54.862Z,15.9
2022-08-25T12:54:54.770Z,15.78
2022-08-25T12:56:54.788Z,15.72
2022-08-25T12:58:59.998Z,15.84
2022-08-25T13:00:56.805Z,15.98
2022-08-25T13:02:54.953Z,15.96
2022-08-25T13:04:54.817Z,16.07
2022-08-25T13:06:54.824Z,16.1
2022-08-25T13:08:56.264Z,15.9
2022-08-25T13:10:54.853Z,15.81
2022-08-25T13:12:54.929Z,15.7
2022-08-25T13:14:54.886Z,15.7
2022-08-25T13:16:54.990Z,15.7
2022-08-25T13:18:54.914Z,15.78
2022-08-25T13:20:54.931Z,15.84
2022-08-25T13:22:57.501Z,15.81
2022-08-25T13:24:54.979Z,15.9
2022-08-25T13:26:54.972Z,15.72
2022-08-25T13:28:54.990Z,15.72
2022-08-25T13:30:55.004Z,15.75
2022-08-25T13:32:55.020Z,15.72
2022-08-25T13:34:55.039Z,15.61
2022-08-25T13:36:58.754Z,15.55
2022-08-25T13:38:55.067Z,15.58
2022-08-25T13:40:55.087Z,15.67
2022-08-25T13:42:56.167Z,15.58
2022-08-25T13:44:55.115Z,15.55
2022-08-25T13:46:55.154Z,15.52
2022-08-25T13:48:55.128Z,15.58
2022-08-25T13:50:55.141Z,15.43
2022-08-25T13:52:55.151Z,15.55
2022-08-25T13:54:55.151Z,15.43
2022-08-25T13:56:55.154Z,15.52
2022-08-25T13:58:55.150Z,15.66
2022-08-25T14:00:55.160Z,15.42
2022-08-25T14:02:55.230Z,15.45
2022-08-25T14:04:55.173Z,15.42
2022-08-25T14:06:55.178Z,15.45
2022-08-25T14:08:55.188Z,15.45
2022-08-25T14:10:55.192Z,15.47
2022-08-25T14:12:55.208Z,15.42
2022-08-25T14:14:55.220Z,15.25
2022-08-25T14:16:57.345Z,15.26
2022-08-25T14:18:55.240Z,15.24
2022-08-25T14:20:55.242Z,15.01
2022-08-25T14:22:55.256Z,15.24
2022-08-25T14:24:55.273Z,15.23
2022-08-25T14:26:55.281Z,15.2
2022-08-25T14:28:55.288Z,14.87
2022-08-25T14:30:55.589Z,14.98
2022-08-25T14:32:55.303Z,15.1
2022-08-25T14:34:55.308Z,15.16
2022-08-25T14:36:55.308Z,15.11
2022-08-25T14:38:55.325Z,14.97
2022-08-25T14:40:55.386Z,14.86
2022-08-25T14:42:55.342Z,14.92
2022-08-25T14:44:56.158Z,14.84
2022-08-25T14:46:55.368Z,15.01
2022-08-25T14:48:55.442Z,14.8
2022-08-25T14:50:55.360Z,14.89
2022-08-25T14:52:55.365Z,14.83
2022-08-25T14:54:55.369Z,14.82
2022-08-25T14:56:55.395Z,14.77
2022-08-25T14:58:55.385Z,14.78
2022-08-25T15:00:55.452Z,14.78
2022-08-25T15:02:55.401Z,14.78
2022-08-25T15:04:55.442Z,14.83
2022-08-25T15:06:55.418Z,14.87
2022-08-25T15:08:55.429Z,14.95
2022-08-25T15:10:55.437Z,14.99
2022-08-25T15:12:55.582Z,14.97
2022-08-25T15:14:55.457Z,14.87
2022-08-25T15:16:55.575Z,14.83
2022-08-25T15:18:55.475Z,14.95
2022-08-25T15:20:55.486Z,14.95
2022-08-25T15:22:55.491Z,14.93
2022-08-25T15:24:55.501Z,14.85
2022-08-25T15:26:55.543Z,14.75
2022-08-25T15:28:55.530Z,14.82
2022-08-25T15:30:55.532Z,14.85
2022-08-25T15:32:56.500Z,14.94
2022-08-25T15:34:55.550Z,14.88
2022-08-25T15:36:55.555Z,14.92
2022-08-25T15:38:55.562Z,14.71
2022-08-25T15:40:55.574Z,14.46
2022-08-25T15:42:55.576Z,14.5
2022-08-25T15:44:55.573Z,14.54
2022-08-25T15:46:56.286Z,14.49
2022-08-25T15:50:55.605Z,14.39
2022-08-25T15:52:55.609Z,14.42
2022-08-25T15:54:55.623Z,14.45
2022-08-25T15:56:55.629Z,14.51
2022-08-25T15:58:55.751Z,14.56
2022-08-25T16:00:56.439Z,14.48
2022-08-25T16:02:55.663Z,14.51
2022-08-25T16:04:55.679Z,14.59
2022-08-25T16:06:55.831Z,14.62
2022-08-25T16:08:55.701Z,14.45
2022-08-25T16:10:55.707Z,14.45
2022-08-25T16:12:55.717Z,14.37
2022-08-25T16:14:55.728Z,14.54
2022-08-25T16:16:58.130Z,14.29
2022-08-25T16:18:55.759Z,14.34
2022-08-25T16:20:55.764Z,14.57
2022-08-25T16:22:55.776Z,14.46
2022-08-25T16:24:55.787Z,14.51
2022-08-25T16:26:56.755Z,14.54
2022-08-25T16:28:55.804Z,14.54
2022-08-25T16:30:55.820Z,14.6
2022-08-25T16:32:55.828Z,14.6
2022-08-25T16:34:55.839Z,14.63
2022-08-25T16:36:55.841Z,14.63
2022-08-25T16:38:55.838Z,14.63
2022-08-25T16:40:55.848Z,14.66
2022-08-25T16:42:55.868Z,14.69
2022-08-25T16:44:55.876Z,14.66
2022-08-25T16:46:56.054Z,14.74
2022-08-25T16:48:55.903Z,14.66
2022-08-25T16:50:55.913Z,14.72
2022-08-25T16:52:55.927Z,14.72
2022-08-25T16:54:55.941Z,14.72
2022-08-25T16:56:55.960Z,14.75
2022-08-25T16:58:55.979Z,14.75
2022-08-25T17:00:56.047Z,14.83
2022-08-25T17:02:55.997Z,14.83
2022-08-25T17:04:56.014Z,14.94
2022-08-25T17:06:56.034Z,14.97
2022-08-25T17:08:56.048Z,14.94
2022-08-25T17:10:56.060Z,15.02
2022-08-25T17:12:56.072Z,15.02
2022-08-25T17:14:56.091Z,15.04
2022-08-25T17:16:56.116Z,15.06
2022-08-25T17:18:56.113Z,15.14
2022-08-25T17:20:56.135Z,15.11
2022-08-25T17:22:56.142Z,15.08
2022-08-25T17:24:59.483Z,15.08
2022-08-25T17:26:56.214Z,15.07
2022-08-25T17:28:56.170Z,15.12
2022-08-25T17:30:56.242Z,15.09
2022-08-25T17:32:56.205Z,15.11
2022-08-25T17:34:56.187Z,15.08
2022-08-25T17:36:56.209Z,14.99
2022-08-25T17:38:56.890Z,14.98
2022-08-25T17:40:56.238Z,14.98
2022-08-25T17:42:56.249Z,14.97
2022-08-25T17:44:56.267Z,14.98
2022-08-25T17:46:56.323Z,15
2022-08-25T17:48:56.297Z,15.04
2022-08-25T17:50:56.309Z,15.03
2022-08-25T17:52:56.329Z,15.02
2022-08-25T17:54:56.346Z,15.03
2022-08-25T17:56:56.365Z,15.12
2022-08-25T17:58:56.376Z,15.14
2022-08-25T18:00:56.398Z,15.15
2022-08-25T18:02:56.407Z,15.09
2022-08-25T18:04:56.428Z,15.12
2022-08-25T18:06:56.440Z,15.13
2022-08-25T18:08:59.421Z,15.15
2022-08-25T18:10:56.471Z,15.1
2022-08-25T18:12:56.490Z,15.1
2022-08-25T18:14:56.511Z,15.13
2022-08-25T18:16:56.544Z,15.11
2022-08-25T18:18:56.540Z,15.07
2022-08-25T18:20:56.550Z,15.06
2022-08-25T18:22:56.560Z,15.08
2022-08-25T18:24:56.562Z,15.11
2022-08-25T18:26:56.569Z,15.09
2022-08-25T18:28:56.593Z,15.07
2022-08-25T18:30:56.650Z,15.03
2022-08-25T18:32:56.624Z,15.09
2022-08-25T18:34:56.651Z,15.08
2022-08-25T18:36:56.655Z,15.12
2022-08-25T18:38:57.799Z,15.12
2022-08-25T18:40:56.692Z,15.08
2022-08-25T18:42:56.711Z,15.04
2022-08-25T18:44:56.729Z,15.1
2022-08-25T18:46:56.753Z,15.04
2022-08-25T18:48:56.793Z,15.08
2022-08-25T18:50:56.781Z,15.02
2022-08-25T18:52:56.801Z,15.06
2022-08-25T18:54:56.814Z,15.06
2022-08-25T18:56:56.830Z,15.04
2022-08-25T18:58:56.848Z,15.04
2022-08-25T19:00:56.873Z,15.06
2022-08-25T19:02:57.383Z,15.02
2022-08-25T19:04:56.906Z,15.06
2022-08-25T19:06:56.922Z,15.01
2022-08-25T19:08:56.939Z,15.06
2022-08-25T19:10:56.948Z,15.01
2022-08-25T19:12:56.964Z,15.05
2022-08-25T19:14:56.966Z,14.97
2022-08-25T19:16:56.983Z,15.01
2022-08-25T19:18:56.969Z,15.03
2022-08-25T19:20:56.981Z,14.96
2022-08-25T19:22:57.000Z,14.94
2022-08-25T19:24:57.024Z,14.96
2022-08-25T19:26:57.040Z,15
2022-08-25T19:28:57.055Z,15.02
2022-08-25T19:30:57.128Z,15.04
2022-08-25T19:32:57.098Z,14.98
2022-08-25T19:34:57.114Z,15.04
2022-08-25T19:36:57.132Z,15.04
2022-08-25T19:38:57.154Z,15.02
2022-08-25T19:40:57.169Z,15.04
2022-08-25T19:42:57.192Z,15.06
2022-08-25T19:44:57.212Z,15.06
2022-08-25T19:46:57.255Z,15.01
2022-08-25T19:48:57.252Z,15.01
2022-08-25T19:50:57.272Z,15.1
2022-08-25T19:52:57.397Z,15.01
2022-08-25T19:54:57.309Z,15.03
2022-08-25T19:56:57.331Z,15.05
2022-08-25T19:58:57.343Z,15.01
2022-08-25T20:00:57.365Z,15.05
2022-08-25T20:02:57.420Z,15.03
2022-08-25T20:04:57.394Z,15.05
2022-08-25T20:06:57.406Z,15.07
2022-08-25T20:08:59.090Z,15.02
2022-08-25T20:10:57.418Z,15.02
2022-08-25T20:12:57.416Z,15.04
2022-08-25T20:14:57.426Z,14.97
2022-08-25T20:16:57.464Z,15.03
2022-08-25T20:18:57.477Z,15.05
2022-08-25T20:20:57.489Z,14.99
2022-08-25T20:22:57.499Z,15.03
2022-08-25T20:24:58.443Z,15.11
2022-08-25T20:26:57.532Z,15.02
2022-08-25T20:28:57.550Z,15.14
2022-08-25T20:30:57.602Z,14.99
2022-08-25T20:32:57.574Z,15.05
2022-08-25T20:34:57.734Z,15
2022-08-25T20:36:57.609Z,15.02
2022-08-25T20:38:59.018Z,14.95
2022-08-25T20:40:57.641Z,15.03
2022-08-25T20:42:57.650Z,14.96
2022-08-25T20:44:57.668Z,15
2022-08-25T20:46:57.680Z,15
2022-08-25T20:48:57.679Z,15.04
2022-08-25T20:50:58.018Z,15.04
2022-08-25T20:52:57.698Z,15.04
2022-08-25T20:54:57.716Z,15.04
2022-08-25T20:56:57.724Z,15.02
2022-08-25T20:58:57.730Z,15.02
2022-08-25T21:00:57.797Z,15.04
2022-08-25T21:02:57.745Z,15.15
2022-08-25T21:04:57.744Z,15.11
2022-08-25T21:06:57.758Z,15.11
2022-08-25T21:08:57.760Z,15.09
2022-08-25T21:10:57.785Z,15.2
2022-08-25T21:12:57.774Z,15.09
2022-08-25T21:14:57.793Z,15.11
2022-08-25T21:16:57.835Z,15.13
2022-08-25T21:18:57.804Z,15.06
2022-08-25T21:20:57.803Z,15.1
2022-08-25T21:22:57.804Z,15.14
2022-08-25T21:24:57.810Z,15.14
2022-08-25T21:26:57.822Z,15.18
2022-08-25T21:28:57.815Z,15.07
2022-08-25T21:30:57.867Z,15.09
2022-08-25T21:32:57.825Z,15.13
2022-08-25T21:34:58.428Z,15.08
2022-08-25T21:36:58.241Z,15.1
2022-08-25T21:38:57.825Z,15.05
2022-08-25T21:40:57.836Z,15.08
2022-08-25T21:42:57.831Z,15.08
2022-08-25T21:44:57.835Z,15.12
2022-08-25T21:46:57.848Z,15.12
2022-08-25T21:48:57.838Z,15.05
2022-08-25T21:50:57.840Z,15.05
2022-08-25T21:52:57.844Z,15.07
2022-08-25T21:54:57.839Z,15.09
2022-08-25T21:56:57.844Z,15.02
2022-08-25T21:58:57.838Z,15.04
2022-08-25T22:00:57.878Z,15.06
2022-08-25T22:02:57.854Z,15.08
2022-08-25T22:04:57.846Z,15.12
2022-08-25T22:06:58.118Z,15.08
2022-08-25T22:08:57.850Z,15.01
2022-08-25T22:10:57.859Z,15.03
2022-08-25T22:12:57.854Z,15.06
2022-08-25T22:14:57.858Z,15.06
2022-08-25T22:16:57.905Z,14.98
2022-08-25T22:18:57.860Z,15
2022-08-25T22:20:57.865Z,15.01
2022-08-25T22:22:57.859Z,14.96
2022-08-25T22:24:57.859Z,15
2022-08-25T22:26:58.346Z,14.93
2022-08-25T22:28:57.864Z,14.97
2022-08-25T22:30:57.921Z,14.92
2022-08-25T22:32:57.865Z,14.95
2022-08-25T22:34:57.864Z,14.87
2022-08-25T22:36:59.714Z,14.82
2022-08-25T22:38:57.870Z,14.87
2022-08-25T22:40:57.869Z,14.91
2022-08-25T22:42:57.869Z,14.86
2022-08-25T22:44:57.869Z,14.86
2022-08-25T22:46:57.883Z,14.87
2022-08-25T22:48:57.872Z,14.73
2022-08-25T22:50:57.871Z,14.67
2022-08-25T22:52:57.878Z,14.74
2022-08-25T22:54:57.881Z,14.72
2022-08-25T22:56:57.876Z,14.77
2022-08-25T22:58:57.879Z,14.79
2022-08-25T23:00:57.875Z,14.82
2022-08-25T23:02:57.943Z,14.82
2022-08-25T23:04:57.943Z,14.82
2022-08-25T23:06:57.884Z,14.84
2022-08-25T23:08:57.885Z,14.82
2022-08-25T23:10:57.885Z,14.82
2022-08-25T23:12:57.889Z,14.84
2022-08-25T23:14:57.891Z,14.84
2022-08-25T23:16:57.966Z,14.84
2022-08-25T23:18:57.892Z,14.86
2022-08-25T23:20:57.897Z,14.84
2022-08-25T23:22:57.892Z,14.76
2022-08-25T23:24:57.896Z,14.79
2022-08-25T23:26:57.894Z,14.79
2022-08-25T23:28:57.903Z,14.74
2022-08-25T23:30:59.225Z,14.74
2022-08-25T23:32:57.904Z,14.77
2022-08-25T23:34:57.900Z,14.74
2022-08-25T23:36:57.904Z,14.76
2022-08-25T23:38:57.906Z,14.74
2022-08-25T23:40:57.900Z,14.74
2022-08-25T23:42:57.907Z,14.67
2022-08-25T23:44:57.909Z,14.7
2022-08-25T23:46:58.007Z,14.63
2022-08-25T23:48:57.913Z,14.57
2022-08-25T23:50:57.921Z,14.58
2022-08-25T23:52:57.912Z,14.53
2022-08-25T23:54:57.913Z,14.6
2022-08-25T23:56:57.915Z,14.65
2022-08-25T23:58:57.924Z,14.66
